createdAt,value
2023-02-23T00:23:50.008Z,11.70
2023-02-23T00:26:22.944Z,11.70
2023-02-23T00:28:51.283Z,11.80
2023-02-23T00:31:18.846Z,11.80
2023-02-23T00:33:46.357Z,11.70
2023-02-23T00:36:14.173Z,11.80
2023-02-23T00:38:41.392Z,11.80
2023-02-23T00:41:09.956Z,11.80
2023-02-23T00:43:48.626Z,11.70
2023-02-23T00:46:19.288Z,11.70
2023-02-23T00:48:46.796Z,11.70
2023-02-23T00:51:14.149Z,11.60
2023-02-23T00:53:44.481Z,11.60
2023-02-23T00:56:12.654Z,11.50
2023-02-23T00:58:44.680Z,11.50
2023-02-23T01:01:12.124Z,11.40
2023-02-23T01:03:39.780Z,11.40
2023-02-23T01:06:10.117Z,11.30
2023-02-23T01:08:39.170Z,11.30
2023-02-23T01:11:07.237Z,11.20
2023-02-23T01:13:34.750Z,11.10
2023-02-23T01:16:08.789Z,11.10
2023-02-23T01:18:36.261Z,11.10
2023-02-23T01:21:08.820Z,11.00
2023-02-23T01:23:41.395Z,10.90
2023-02-23T01:26:15.794Z,10.80
2023-02-23T01:28:43.096Z,10.80
2023-02-23T01:31:10.524Z,10.90
2023-02-23T01:33:37.851Z,10.90
2023-02-23T01:36:05.190Z,10.90
2023-02-23T01:38:32.523Z,10.90
2023-02-23T01:40:59.982Z,10.90
2023-02-23T01:43:28.610Z,10.90
2023-02-23T01:45:56.440Z,10.90
2023-02-23T01:48:24.456Z,10.90
2023-02-23T01:50:57.330Z,11.00
2023-02-23T01:53:25.070Z,10.90
2023-02-23T01:55:55.200Z,10.90
2023-02-23T01:58:23.008Z,10.90
2023-02-23T02:00:56.890Z,10.90
2023-02-23T02:03:27.276Z,10.90
2023-02-23T02:05:54.593Z,10.80
2023-02-23T02:08:24.740Z,10.90
2023-02-23T02:10:56.320Z,10.70
2023-02-23T02:13:25.004Z,10.50
2023-02-23T02:15:59.747Z,10.40
2023-02-23T02:18:30.851Z,10.30
2023-02-23T02:21:04.951Z,10.30
2023-02-23T02:23:50.851Z,10.40
2023-02-23T02:26:24.636Z,10.40
2023-02-23T02:29:00.356Z,10.60
2023-02-23T02:31:27.543Z,10.60
2023-02-23T02:33:58.614Z,10.60
2023-02-23T02:36:38.013Z,10.60
2023-02-23T03:21:19.599Z,10.20
2023-02-23T03:27:20.612Z,10.10
2023-02-23T03:36:27.873Z,9.90
2023-02-23T04:24:19.244Z,9.50
2023-02-23T04:45:55.300Z,8.90
2023-02-23T04:48:25.514Z,9.00
2023-02-23T04:50:53.190Z,9.20
2023-02-23T04:53:20.170Z,9.30
2023-02-23T04:55:47.515Z,9.40
2023-02-23T04:58:14.962Z,9.50
2023-02-23T05:00:42.279Z,9.50
2023-02-23T05:03:09.889Z,9.40
2023-02-23T05:05:37.397Z,9.30
2023-02-23T05:08:04.544Z,9.30
2023-02-23T05:10:31.886Z,9.30
2023-02-23T05:13:21.125Z,9.30
2023-02-23T05:16:23.167Z,9.30
2023-02-23T05:19:15.309Z,9.00
2023-02-23T05:21:57.033Z,8.80
2023-02-23T05:24:42.331Z,8.80
2023-02-23T05:32:45.647Z,8.90
2023-02-23T05:35:13.273Z,8.90
2023-02-23T05:37:40.569Z,8.90
2023-02-23T05:40:08.288Z,8.90
2023-02-23T05:42:40.546Z,8.80
2023-02-23T05:45:08.162Z,8.80
2023-02-23T05:47:39.090Z,8.80
2023-02-23T05:50:06.836Z,8.80
2023-02-23T05:52:33.998Z,8.90
2023-02-23T05:55:01.395Z,8.80
2023-02-23T05:57:28.820Z,8.90
2023-02-23T06:00:01.449Z,8.90
2023-02-23T06:02:28.994Z,8.90
2023-02-23T06:04:56.291Z,8.90
2023-02-23T06:07:23.912Z,8.90
2023-02-23T06:09:50.920Z,9.00
2023-02-23T06:12:18.591Z,9.00
2023-02-23T06:19:46.568Z,9.00
2023-02-23T06:22:14.560Z,9.00
2023-02-23T06:59:26.788Z,11.70
2023-02-23T07:02:02.164Z,12.70
2023-02-23T07:04:30.905Z,13.80
2023-02-23T07:06:58.229Z,14.70
2023-02-23T07:09:25.828Z,15.40
2023-02-23T07:11:59.027Z,15.90
2023-02-23T07:14:27.291Z,16.10
2023-02-23T22:08:17.204Z,15.70
2023-02-23T22:10:44.637Z,15.80
2023-02-23T22:13:12.076Z,15.70
2023-02-23T22:15:50.247Z,15.80
2023-02-23T22:18:20.185Z,15.70
2023-02-23T22:21:04.655Z,15.70
2023-02-23T22:23:32.195Z,15.60
2023-02-23T22:26:23.224Z,15.50
2023-02-23T22:48:05.158Z,15.40
2023-02-23T22:50:34.955Z,15.40
2023-02-23T22:53:08.614Z,15.40
2023-02-23T22:55:55.010Z,15.40
2023-02-23T22:58:40.258Z,15.40
2023-02-23T23:01:12.952Z,15.30
2023-02-23T23:06:27.202Z,15.20
2023-02-23T23:08:58.291Z,15.20
2023-02-23T23:11:26.967Z,15.20
2023-02-23T23:14:07.343Z,15.20
2023-02-23T23:16:48.442Z,15.30
2023-02-23T23:21:49.934Z,15.10
2023-02-23T23:24:17.278Z,15.10
2023-02-23T23:26:44.702Z,15.00
2023-02-23T23:29:25.964Z,15.00
2023-02-23T23:34:34.050Z,14.90
2023-02-23T23:39:37.141Z,14.90
2023-02-23T23:42:07.846Z,14.90
2023-02-23T23:47:11.512Z,14.80
2023-02-23T23:49:39.393Z,14.80
2023-02-23T23:52:09.751Z,14.80
2023-02-23T23:54:39.471Z,14.80
2023-02-23T23:57:07.602Z,14.80
2023-02-23T23:59:36.621Z,14.80
